createdAt,value
2023-04-17T00:00:37.815Z,9.31
2023-04-17T00:10:39.924Z,9.60
2023-04-17T00:20:41.982Z,9.59
2023-04-17T00:30:44.137Z,9.43
2023-04-17T00:40:46.472Z,9.34
2023-04-17T00:50:50.153Z,9.32
2023-04-17T01:00:52.314Z,9.12
2023-04-17T01:10:54.611Z,8.83
2023-04-17T01:20:56.840Z,9.14
2023-04-17T01:30:59.113Z,8.64
2023-04-17T01:41:09.530Z,8.67
2023-04-17T01:51:11.764Z,8.29
2023-04-17T02:01:14.158Z,8.60
2023-04-17T02:11:16.353Z,8.79
2023-04-17T02:21:18.698Z,8.43
2023-04-17T02:31:20.839Z,8.39
2023-04-17T02:41:22.988Z,8.48
2023-04-17T02:51:26.532Z,8.39
2023-04-17T03:01:29.850Z,7.76
2023-04-17T03:11:32.114Z,8.49
2023-04-17T03:21:34.369Z,8.37
2023-04-17T03:31:37.506Z,8.24
2023-04-17T03:41:40.018Z,8.21
2023-04-17T03:51:43.094Z,8.11
2023-04-17T04:01:54.100Z,8.26
2023-04-17T04:11:58.429Z,8.06
2023-04-17T04:22:01.523Z,8.02
2023-04-17T04:32:13.530Z,7.94
2023-04-17T04:42:22.392Z,8.51
2023-04-17T04:52:39.868Z,8.01
2023-04-17T05:02:51.442Z,8.01
2023-04-17T05:12:58.901Z,8.13
2023-04-17T05:23:01.916Z,8.04
2023-04-17T05:33:04.305Z,8.22
2023-04-17T05:43:17.433Z,8.49
2023-04-17T05:53:20.665Z,8.17
2023-04-17T06:03:30.636Z,7.84
2023-04-17T06:13:42.950Z,8.26
2023-04-17T06:23:45.479Z,8.38
2023-04-17T06:33:49.854Z,7.37
2023-04-17T06:43:53.928Z,7.89
2023-04-17T06:53:56.065Z,8.21
2023-04-17T07:03:58.255Z,7.79
2023-04-17T07:14:00.399Z,8.25
2023-04-17T07:24:02.514Z,8.26
2023-04-17T07:34:05.159Z,8.82
2023-04-17T07:44:07.209Z,8.76
2023-04-17T07:54:09.374Z,9.07
2023-04-17T08:04:11.665Z,9.18
2023-04-17T08:14:15.460Z,9.18
2023-04-17T08:24:19.754Z,9.17
2023-04-17T08:34:22.268Z,9.72
2023-04-17T08:44:24.318Z,9.78
2023-04-17T08:54:27.514Z,10.19
2023-04-17T09:04:37.112Z,10.33
2023-04-17T09:14:39.490Z,10.47
2023-04-17T09:24:42.925Z,10.86
2023-04-17T09:34:45.081Z,10.78
2023-04-17T09:44:48.466Z,10.97
2023-04-17T09:54:53.620Z,10.78
2023-04-17T10:04:55.838Z,10.41
2023-04-17T10:14:57.929Z,10.60
2023-04-17T10:25:15.631Z,10.82
2023-04-17T10:35:17.833Z,10.86
2023-04-17T10:45:20.102Z,11.71
2023-04-17T10:55:23.866Z,11.59
2023-04-17T11:05:26.030Z,12.20
2023-04-17T11:15:29.242Z,12.11
2023-04-17T11:25:33.968Z,11.87
2023-04-17T11:35:38.951Z,11.91
2023-04-17T11:45:43.080Z,12.54
2023-04-17T11:55:45.779Z,11.92
2023-04-17T12:05:58.912Z,13.14
2023-04-17T12:16:01.111Z,12.26
2023-04-17T12:26:03.260Z,12.64
2023-04-17T12:36:06.445Z,13.31
2023-04-17T12:46:08.581Z,13.56
2023-04-17T12:56:10.799Z,12.18
2023-04-17T13:06:13.580Z,12.69
2023-04-17T13:16:15.725Z,13.03
2023-04-17T13:26:18.145Z,13.54
2023-04-17T13:36:20.196Z,13.68
2023-04-17T13:46:22.311Z,12.78
2023-04-17T13:56:25.332Z,12.63
2023-04-17T14:06:31.952Z,13.28
2023-04-17T14:16:34.128Z,13.34
2023-04-17T14:26:37.519Z,12.61
2023-04-17T14:36:39.696Z,14.31
2023-04-17T14:46:41.929Z,13.00
2023-04-17T14:56:44.175Z,12.38
2023-04-17T15:06:46.377Z,12.86
2023-04-17T15:16:48.540Z,13.04
2023-04-17T15:26:51.245Z,13.80
2023-04-17T15:36:53.770Z,13.43
2023-04-17T15:46:56.077Z,13.33
2023-04-17T15:56:58.226Z,13.24
2023-04-17T16:07:00.358Z,13.22
2023-04-17T16:17:03.143Z,12.60
2023-04-17T16:27:06.386Z,13.32
2023-04-17T16:37:08.512Z,12.62
2023-04-17T16:47:13.928Z,13.19
2023-04-17T16:57:16.531Z,13.42
2023-04-17T17:07:18.733Z,13.04
2023-04-17T17:17:20.846Z,12.88
2023-04-17T17:27:24.007Z,12.15
2023-04-17T17:37:26.868Z,12.08
2023-04-17T17:47:29.090Z,12.11
2023-04-17T17:57:45.670Z,12.05
2023-04-17T18:07:50.559Z,12.19
2023-04-17T18:17:52.786Z,12.41
2023-04-17T18:27:54.943Z,11.87
2023-04-17T18:37:56.979Z,11.48
2023-04-17T18:47:59.162Z,11.15
2023-04-17T18:58:01.241Z,11.81
2023-04-17T19:08:03.476Z,10.90
2023-04-17T19:18:07.644Z,11.58
2023-04-17T19:28:10.859Z,10.89
2023-04-17T19:38:14.369Z,10.90
2023-04-17T19:48:18.431Z,11.14
2023-04-17T19:58:20.582Z,10.47
2023-04-17T20:08:22.808Z,10.32
2023-04-17T20:18:25.635Z,10.41
2023-04-17T20:28:29.002Z,10.38
2023-04-17T20:38:31.106Z,10.04
2023-04-17T20:48:33.243Z,9.55
2023-04-17T20:58:36.346Z,9.20
2023-04-17T21:08:38.522Z,10.15
2023-04-17T21:18:40.660Z,9.88
2023-04-17T21:28:43.011Z,9.17
2023-04-17T21:38:45.644Z,8.76
2023-04-17T21:48:47.721Z,9.21
2023-04-17T21:58:51.629Z,8.84
2023-04-17T22:08:53.736Z,8.82
2023-04-17T22:18:55.955Z,8.12
2023-04-17T22:28:58.110Z,8.37
2023-04-17T22:39:01.278Z,7.99
2023-04-17T22:49:05.997Z,7.90
2023-04-17T22:59:08.091Z,7.83
2023-04-17T23:09:10.282Z,8.07
2023-04-17T23:19:12.413Z,7.58
2023-04-17T23:29:14.534Z,7.14
2023-04-17T23:39:16.629Z,6.98
2023-04-17T23:49:18.700Z,7.40
2023-04-17T23:59:20.893Z,6.97
